sensor_id;sensor_type;location;lat;lon;timestamp;temperature;humidity
3275;DHT22;1649;53.672;10.064;2024-01-11T00:00:05;-1.30;99.90
3275;DHT22;1649;53.672;10.064;2024-01-11T00:02:30;-1.30;99.90
3275;DHT22;1649;53.672;10.064;2024-01-11T00:04:56;-1.30;99.90
3275;DHT22;1649;53.672;10.064;2024-01-11T00:07:21;-1.30;99.90
3275;DHT22;1649;53.672;10.064;2024-01-11T00:09:47;-1.30;99.90
3275;DHT22;1649;53.672;10.064;2024-01-11T00:12:13;-1.20;99.90
3275;DHT22;1649;53.672;10.064;2024-01-11T00:14:39;-1.20;99.90
3275;DHT22;1649;53.672;10.064;2024-01-11T00:17:05;-1.20;99.90
3275;DHT22;1649;53.672;10.064;2024-01-11T00:19:30;-1.20;99.90
3275;DHT22;1649;53.672;10.064;2024-01-11T00:21:57;-1.20;99.90
3275;DHT22;1649;53.672;10.064;2024-01-11T00:24:22;-1.20;99.90
3275;DHT22;1649;53.672;10.064;2024-01-11T00:26:48;-1.10;99.90
3275;DHT22;1649;53.672;10.064;2024-01-11T00:29:13;-1.10;99.90
3275;DHT22;1649;53.672;10.064;2024-01-11T00:31:39;-1.10;99.90
3275;DHT22;1649;53.672;10.064;2024-01-11T00:34:04;-1.20;99.90
3275;DHT22;1649;53.672;10.064;2024-01-11T00:36:30;-1.20;99.90
3275;DHT22;1649;53.672;10.064;2024-01-11T00:38:55;-1.20;99.90
3275;DHT22;1649;53.672;10.064;2024-01-11T00:41:21;-1.20;99.90
3275;DHT22;1649;53.672;10.064;2024-01-11T00:43:47;-1.20;99.90
3275;DHT22;1649;53.672;10.064;2024-01-11T00:46:12;-1.20;99.90
3275;DHT22;1649;53.672;10.064;2024-01-11T00:48:37;-1.20;99.90
3275;DHT22;1649;53.672;10.064;2024-01-11T00:51:06;-1.20;99.90
3275;DHT22;1649;53.672;10.064;2024-01-11T00:53:32;-1.30;99.90
3275;DHT22;1649;53.672;10.064;2024-01-11T00:55:59;-1.30;99.90
3275;DHT22;1649;53.672;10.064;2024-01-11T00:58:24;-1.30;99.90
3275;DHT22;1649;53.672;10.064;2024-01-11T01:00:50;-1.30;99.90
3275;DHT22;1649;53.672;10.064;2024-01-11T01:03:15;-1.30;99.90
3275;DHT22;1649;53.672;10.064;2024-01-11T01:05:41;-1.30;99.90
3275;DHT22;1649;53.672;10.064;2024-01-11T01:08:07;-1.30;99.90
3275;DHT22;1649;53.672;10.064;2024-01-11T01:10:32;-1.30;99.90
3275;DHT22;1649;53.672;10.064;2024-01-11T01:12:58;-1.40;99.90
3275;DHT22;1649;53.672;10.064;2024-01-11T01:15:23;-1.30;99.90
3275;DHT22;1649;53.672;10.064;2024-01-11T01:17:49;-1.30;99.90
3275;DHT22;1649;53.672;10.064;2024-01-11T01:20:15;-1.30;99.90
3275;DHT22;1649;53.672;10.064;2024-01-11T01:22:40;-1.40;99.90
3275;DHT22;1649;53.672;10.064;2024-01-11T01:25:06;-1.40;99.90
3275;DHT22;1649;53.672;10.064;2024-01-11T01:27:32;-1.50;99.90
3275;DHT22;1649;53.672;10.064;2024-01-11T01:29:57;-1.50;99.90
3275;DHT22;1649;53.672;10.064;2024-01-11T01:32:22;-1.40;99.90
3275;DHT22;1649;53.672;10.064;2024-01-11T01:34:48;-1.50;99.90
3275;DHT22;1649;53.672;10.064;2024-01-11T01:37:13;-1.50;99.90
3275;DHT22;1649;53.672;10.064;2024-01-11T01:39:39;-1.40;99.90
3275;DHT22;1649;53.672;10.064;2024-01-11T01:42:05;-1.40;99.90
3275;DHT22;1649;53.672;10.064;2024-01-11T01:44:31;-1.40;99.90
3275;DHT22;1649;53.672;10.064;2024-01-11T01:46:56;-1.40;99.90
3275;DHT22;1649;53.672;10.064;2024-01-11T01:49:23;-1.40;99.90
3275;DHT22;1649;53.672;10.064;2024-01-11T01:51:49;-1.40;99.90
3275;DHT22;1649;53.672;10.064;2024-01-11T01:54:15;-1.40;99.90
3275;DHT22;1649;53.672;10.064;2024-01-11T01:56:41;-1.40;99.90
3275;DHT22;1649;53.672;10.064;2024-01-11T01:59:08;-1.40;99.90
3275;DHT22;1649;53.672;10.064;2024-01-11T02:01:34;-1.50;99.90
3275;DHT22;1649;53.672;10.064;2024-01-11T02:03:59;-1.40;99.90
3275;DHT22;1649;53.672;10.064;2024-01-11T02:06:25;-1.40;99.90
3275;DHT22;1649;53.672;10.064;2024-01-11T02:08:52;-1.40;99.90
3275;DHT22;1649;53.672;10.064;2024-01-11T02:11:21;-1.40;99.90
3275;DHT22;1649;53.672;10.064;2024-01-11T02:13:47;-1.40;99.90
3275;DHT22;1649;53.672;10.064;2024-01-11T02:16:13;-1.40;99.90
3275;DHT22;1649;53.672;10.064;2024-01-11T02:18:39;-1.40;99.90
3275;DHT22;1649;53.672;10.064;2024-01-11T02:21:08;-1.40;99.90
3275;DHT22;1649;53.672;10.064;2024-01-11T02:23:39;-1.40;99.90
3275;DHT22;1649;53.672;10.064;2024-01-11T02:26:07;-1.40;99.90
3275;DHT22;1649;53.672;10.064;2024-01-11T02:28:33;-1.30;99.90
3275;DHT22;1649;53.672;10.064;2024-01-11T02:30:58;-1.40;99.90
3275;DHT22;1649;53.672;10.064;2024-01-11T02:33:24;-1.40;99.90
3275;DHT22;1649;53.672;10.064;2024-01-11T02:35:50;-1.40;99.90
3275;DHT22;1649;53.672;10.064;2024-01-11T02:38:16;-1.40;99.90
3275;DHT22;1649;53.672;10.064;2024-01-11T02:40:42;-1.40;99.90
3275;DHT22;1649;53.672;10.064;2024-01-11T02:43:10;-1.40;99.90
3275;DHT22;1649;53.672;10.064;2024-01-11T02:45:36;-1.40;99.90
3275;DHT22;1649;53.672;10.064;2024-01-11T02:48:01;-1.40;99.90
3275;DHT22;1649;53.672;10.064;2024-01-11T02:50:27;-1.40;99.90
3275;DHT22;1649;53.672;10.064;2024-01-11T02:52:52;-1.40;99.90
3275;DHT22;1649;53.672;10.064;2024-01-11T02:55:18;-1.40;99.90
3275;DHT22;1649;53.672;10.064;2024-01-11T02:57:43;-1.40;99.90
3275;DHT22;1649;53.672;10.064;2024-01-11T03:00:09;-1.40;99.90
3275;DHT22;1649;53.672;10.064;2024-01-11T03:02:37;-1.40;99.90
3275;DHT22;1649;53.672;10.064;2024-01-11T03:05:03;-1.30;99.90
3275;DHT22;1649;53.672;10.064;2024-01-11T03:07:29;-1.30;99.90
3275;DHT22;1649;53.672;10.064;2024-01-11T03:09:55;-1.40;99.90
3275;DHT22;1649;53.672;10.064;2024-01-11T03:12:21;-1.40;99.90
3275;DHT22;1649;53.672;10.064;2024-01-11T03:14:47;-1.40;99.90
3275;DHT22;1649;53.672;10.064;2024-01-11T03:17:13;-1.40;99.90
3275;DHT22;1649;53.672;10.064;2024-01-11T03:19:41;-1.40;99.90
3275;DHT22;1649;53.672;10.064;2024-01-11T03:22:07;-1.40;99.90
3275;DHT22;1649;53.672;10.064;2024-01-11T03:24:33;-1.30;99.90
3275;DHT22;1649;53.672;10.064;2024-01-11T03:26:58;-1.40;99.90
3275;DHT22;1649;53.672;10.064;2024-01-11T03:29:24;-1.40;99.90
3275;DHT22;1649;53.672;10.064;2024-01-11T03:31:49;-1.40;99.90
3275;DHT22;1649;53.672;10.064;2024-01-11T03:34:15;-1.40;99.90
3275;DHT22;1649;53.672;10.064;2024-01-11T03:36:40;-1.40;99.90
3275;DHT22;1649;53.672;10.064;2024-01-11T03:39:06;-1.40;99.90
3275;DHT22;1649;53.672;10.064;2024-01-11T03:41:31;-1.40;99.90
3275;DHT22;1649;53.672;10.064;2024-01-11T03:43:57;-1.40;99.90
3275;DHT22;1649;53.672;10.064;2024-01-11T03:46:22;-1.40;99.90
3275;DHT22;1649;53.672;10.064;2024-01-11T03:48:48;-1.40;99.90
3275;DHT22;1649;53.672;10.064;2024-01-11T03:51:13;-1.40;99.90
3275;DHT22;1649;53.672;10.064;2024-01-11T03:53:39;-1.40;99.90
3275;DHT22;1649;53.672;10.064;2024-01-11T03:56:05;-1.40;99.90
3275;DHT22;1649;53.672;10.064;2024-01-11T03:58:30;-1.40;99.90
3275;DHT22;1649;53.672;10.064;2024-01-11T04:00:56;-1.50;99.90
3275;DHT22;1649;53.672;10.064;2024-01-11T04:03:21;-1.40;99.90
3275;DHT22;1649;53.672;10.064;2024-01-11T04:05:47;-1.40;99.90
3275;DHT22;1649;53.672;10.064;2024-01-11T04:08:13;-1.40;99.90
3275;DHT22;1649;53.672;10.064;2024-01-11T04:10:39;-1.40;99.90
3275;DHT22;1649;53.672;10.064;2024-01-11T04:13:07;-1.50;99.90
3275;DHT22;1649;53.672;10.064;2024-01-11T04:15:32;-1.50;99.90
3275;DHT22;1649;53.672;10.064;2024-01-11T04:17:58;-1.50;99.90
3275;DHT22;1649;53.672;10.064;2024-01-11T04:20:23;-1.40;99.90
3275;DHT22;1649;53.672;10.064;2024-01-11T04:22:49;-1.40;99.90
3275;DHT22;1649;53.672;10.064;2024-01-11T04:25:15;-1.50;99.90
3275;DHT22;1649;53.672;10.064;2024-01-11T04:27:40;-1.40;99.90
3275;DHT22;1649;53.672;10.064;2024-01-11T04:30:06;-1.40;99.90
3275;DHT22;1649;53.672;10.064;2024-01-11T04:32:32;-1.40;99.90
3275;DHT22;1649;53.672;10.064;2024-01-11T04:34:57;-1.40;99.90
3275;DHT22;1649;53.672;10.064;2024-01-11T04:37:23;-1.40;99.90
3275;DHT22;1649;53.672;10.064;2024-01-11T04:39:49;-1.40;99.90
3275;DHT22;1649;53.672;10.064;2024-01-11T04:42:14;-1.40;99.90
3275;DHT22;1649;53.672;10.064;2024-01-11T04:44:40;-1.40;99.90
3275;DHT22;1649;53.672;10.064;2024-01-11T04:47:05;-1.40;99.90
3275;DHT22;1649;53.672;10.064;2024-01-11T04:49:31;-1.40;99.90
3275;DHT22;1649;53.672;10.064;2024-01-11T04:51:56;-1.40;99.90
3275;DHT22;1649;53.672;10.064;2024-01-11T04:54:22;-1.40;99.90
3275;DHT22;1649;53.672;10.064;2024-01-11T04:56:47;-1.40;99.90
3275;DHT22;1649;53.672;10.064;2024-01-11T04:59:13;-1.40;99.90
3275;DHT22;1649;53.672;10.064;2024-01-11T05:01:38;-1.40;99.90
3275;DHT22;1649;53.672;10.064;2024-01-11T05:04:04;-1.40;99.90
3275;DHT22;1649;53.672;10.064;2024-01-11T05:06:31;-1.40;99.90
3275;DHT22;1649;53.672;10.064;2024-01-11T05:08:57;-1.40;99.90
3275;DHT22;1649;53.672;10.064;2024-01-11T05:11:23;-1.40;99.90
3275;DHT22;1649;53.672;10.064;2024-01-11T05:13:50;-1.40;99.90
3275;DHT22;1649;53.672;10.064;2024-01-11T05:16:22;-1.40;99.90
3275;DHT22;1649;53.672;10.064;2024-01-11T05:18:48;-1.30;99.90
3275;DHT22;1649;53.672;10.064;2024-01-11T05:21:14;-1.40;99.90
3275;DHT22;1649;53.672;10.064;2024-01-11T05:23:42;-1.40;99.90
3275;DHT22;1649;53.672;10.064;2024-01-11T05:26:09;-1.40;99.90
3275;DHT22;1649;53.672;10.064;2024-01-11T05:28:34;-1.40;99.90
3275;DHT22;1649;53.672;10.064;2024-01-11T05:31:00;-1.30;99.90
3275;DHT22;1649;53.672;10.064;2024-01-11T05:33:25;-1.40;99.90
3275;DHT22;1649;53.672;10.064;2024-01-11T05:35:51;-1.30;99.90
3275;DHT22;1649;53.672;10.064;2024-01-11T05:38:19;-1.30;99.90
3275;DHT22;1649;53.672;10.064;2024-01-11T05:40:44;-1.30;99.90
3275;DHT22;1649;53.672;10.064;2024-01-11T05:43:10;-1.30;99.90
3275;DHT22;1649;53.672;10.064;2024-01-11T05:45:35;-1.30;99.90
3275;DHT22;1649;53.672;10.064;2024-01-11T05:48:01;-1.30;99.90
3275;DHT22;1649;53.672;10.064;2024-01-11T05:50:26;-1.20;99.90
3275;DHT22;1649;53.672;10.064;2024-01-11T05:52:52;-1.30;99.90
3275;DHT22;1649;53.672;10.064;2024-01-11T05:55:19;-1.30;99.90
3275;DHT22;1649;53.672;10.064;2024-01-11T05:57:44;-1.30;99.90
3275;DHT22;1649;53.672;10.064;2024-01-11T06:00:11;-1.30;99.90
3275;DHT22;1649;53.672;10.064;2024-01-11T06:02:36;-1.30;99.90
3275;DHT22;1649;53.672;10.064;2024-01-11T06:05:02;-1.30;99.90
3275;DHT22;1649;53.672;10.064;2024-01-11T06:07:28;-1.30;99.90
3275;DHT22;1649;53.672;10.064;2024-01-11T06:09:54;-1.30;99.90
3275;DHT22;1649;53.672;10.064;2024-01-11T06:12:20;-1.30;99.90
3275;DHT22;1649;53.672;10.064;2024-01-11T06:14:46;-1.30;99.90
3275;DHT22;1649;53.672;10.064;2024-01-11T06:17:11;-1.30;99.90
3275;DHT22;1649;53.672;10.064;2024-01-11T06:19:37;-1.30;99.90
3275;DHT22;1649;53.672;10.064;2024-01-11T06:22:04;-1.30;99.90
3275;DHT22;1649;53.672;10.064;2024-01-11T06:24:29;-1.30;99.90
3275;DHT22;1649;53.672;10.064;2024-01-11T06:26:55;-1.30;99.90
3275;DHT22;1649;53.672;10.064;2024-01-11T06:29:20;-1.20;99.90
3275;DHT22;1649;53.672;10.064;2024-01-11T06:31:46;-1.20;99.90
3275;DHT22;1649;53.672;10.064;2024-01-11T06:34:11;-1.20;99.90
3275;DHT22;1649;53.672;10.064;2024-01-11T06:36:37;-1.20;99.90
3275;DHT22;1649;53.672;10.064;2024-01-11T06:39:02;-1.20;99.90
3275;DHT22;1649;53.672;10.064;2024-01-11T06:41:29;-1.20;99.90
3275;DHT22;1649;53.672;10.064;2024-01-11T06:43:54;-1.20;99.90
3275;DHT22;1649;53.672;10.064;2024-01-11T06:46:20;-1.30;99.90
3275;DHT22;1649;53.672;10.064;2024-01-11T06:48:49;-1.20;99.90
3275;DHT22;1649;53.672;10.064;2024-01-11T06:51:15;-1.20;99.90
3275;DHT22;1649;53.672;10.064;2024-01-11T06:53:41;-1.20;99.90
3275;DHT22;1649;53.672;10.064;2024-01-11T06:56:17;-1.10;99.90
3275;DHT22;1649;53.672;10.064;2024-01-11T06:58:44;-1.10;99.90
3275;DHT22;1649;53.672;10.064;2024-01-11T07:01:10;-1.10;99.90
3275;DHT22;1649;53.672;10.064;2024-01-11T07:03:36;-1.10;99.90
3275;DHT22;1649;53.672;10.064;2024-01-11T07:06:02;-1.10;99.90
3275;DHT22;1649;53.672;10.064;2024-01-11T07:08:28;-1.10;99.90
3275;DHT22;1649;53.672;10.064;2024-01-11T07:10:54;-1.10;99.90
3275;DHT22;1649;53.672;10.064;2024-01-11T07:13:20;-1.20;99.90
3275;DHT22;1649;53.672;10.064;2024-01-11T07:15:45;-1.10;99.90
3275;DHT22;1649;53.672;10.064;2024-01-11T07:18:11;-1.10;99.90
3275;DHT22;1649;53.672;10.064;2024-01-11T07:20:37;-1.10;99.90
3275;DHT22;1649;53.672;10.064;2024-01-11T07:23:02;-1.10;99.90
3275;DHT22;1649;53.672;10.064;2024-01-11T07:25:28;-1.10;99.90
3275;DHT22;1649;53.672;10.064;2024-01-11T07:27:53;-1.10;99.90
3275;DHT22;1649;53.672;10.064;2024-01-11T07:30:19;-1.20;99.90
3275;DHT22;1649;53.672;10.064;2024-01-11T07:32:44;-1.10;99.90
3275;DHT22;1649;53.672;10.064;2024-01-11T07:35:10;-1.10;99.90
3275;DHT22;1649;53.672;10.064;2024-01-11T07:37:39;-1.10;99.90
3275;DHT22;1649;53.672;10.064;2024-01-11T07:40:05;-1.00;99.90
3275;DHT22;1649;53.672;10.064;2024-01-11T07:42:39;-1.00;99.90
3275;DHT22;1649;53.672;10.064;2024-01-11T07:45:06;-1.00;99.90
3275;DHT22;1649;53.672;10.064;2024-01-11T07:47:32;-1.00;99.90
3275;DHT22;1649;53.672;10.064;2024-01-11T07:49:58;-1.00;99.90
3275;DHT22;1649;53.672;10.064;2024-01-11T07:52:23;-1.00;99.90
3275;DHT22;1649;53.672;10.064;2024-01-11T07:54:49;-1.00;99.90
3275;DHT22;1649;53.672;10.064;2024-01-11T07:57:14;-0.90;99.90
3275;DHT22;1649;53.672;10.064;2024-01-11T07:59:40;-1.00;99.90
3275;DHT22;1649;53.672;10.064;2024-01-11T08:02:06;-1.00;99.90
3275;DHT22;1649;53.672;10.064;2024-01-11T08:04:32;-0.90;99.90
3275;DHT22;1649;53.672;10.064;2024-01-11T08:06:58;-0.90;99.90
3275;DHT22;1649;53.672;10.064;2024-01-11T08:09:25;-0.90;99.90
3275;DHT22;1649;53.672;10.064;2024-01-11T08:11:51;-0.90;99.90
3275;DHT22;1649;53.672;10.064;2024-01-11T08:14:17;-0.90;99.90
3275;DHT22;1649;53.672;10.064;2024-01-11T08:16:43;-0.80;99.90
3275;DHT22;1649;53.672;10.064;2024-01-11T08:19:09;-0.80;99.90
3275;DHT22;1649;53.672;10.064;2024-01-11T08:21:35;-0.80;99.90
3275;DHT22;1649;53.672;10.064;2024-01-11T08:24:01;-0.80;99.90
3275;DHT22;1649;53.672;10.064;2024-01-11T08:26:28;-0.70;99.90
3275;DHT22;1649;53.672;10.064;2024-01-11T08:28:55;-0.70;99.90
3275;DHT22;1649;53.672;10.064;2024-01-11T08:31:20;-0.70;99.90
3275;DHT22;1649;53.672;10.064;2024-01-11T08:33:46;-0.60;99.90
3275;DHT22;1649;53.672;10.064;2024-01-11T08:36:12;-0.60;99.90
3275;DHT22;1649;53.672;10.064;2024-01-11T08:38:38;-0.60;99.90
3275;DHT22;1649;53.672;10.064;2024-01-11T08:41:04;-0.50;99.90
3275;DHT22;1649;53.672;10.064;2024-01-11T08:43:29;-0.40;99.90
3275;DHT22;1649;53.672;10.064;2024-01-11T08:45:55;-0.40;99.90
3275;DHT22;1649;53.672;10.064;2024-01-11T08:48:20;-0.40;99.90
3275;DHT22;1649;53.672;10.064;2024-01-11T08:50:46;-0.40;99.90
3275;DHT22;1649;53.672;10.064;2024-01-11T08:53:12;-0.40;99.90
3275;DHT22;1649;53.672;10.064;2024-01-11T08:55:37;-0.40;99.90
3275;DHT22;1649;53.672;10.064;2024-01-11T08:58:03;-0.40;99.90
3275;DHT22;1649;53.672;10.064;2024-01-11T09:00:29;-0.30;99.90
3275;DHT22;1649;53.672;10.064;2024-01-11T09:02:55;-0.30;99.90
3275;DHT22;1649;53.672;10.064;2024-01-11T09:05:20;-0.30;99.90
3275;DHT22;1649;53.672;10.064;2024-01-11T09:07:46;-0.30;99.90
3275;DHT22;1649;53.672;10.064;2024-01-11T09:10:12;-0.30;99.90
3275;DHT22;1649;53.672;10.064;2024-01-11T09:12:38;-0.20;99.90
3275;DHT22;1649;53.672;10.064;2024-01-11T09:15:04;-0.30;99.90
3275;DHT22;1649;53.672;10.064;2024-01-11T09:17:30;-0.20;99.90
3275;DHT22;1649;53.672;10.064;2024-01-11T09:19:55;-0.20;99.90
3275;DHT22;1649;53.672;10.064;2024-01-11T09:22:21;-0.20;99.90
3275;DHT22;1649;53.672;10.064;2024-01-11T09:24:46;-0.10;99.90
3275;DHT22;1649;53.672;10.064;2024-01-11T09:27:12;-0.10;99.90
3275;DHT22;1649;53.672;10.064;2024-01-11T09:29:45;-0.10;99.90
3275;DHT22;1649;53.672;10.064;2024-01-11T09:32:12;-0.10;99.90
3275;DHT22;1649;53.672;10.064;2024-01-11T09:34:37;0.00;99.90
3275;DHT22;1649;53.672;10.064;2024-01-11T09:37:03;-0.10;99.90
3275;DHT22;1649;53.672;10.064;2024-01-11T09:39:29;0.00;99.90
3275;DHT22;1649;53.672;10.064;2024-01-11T09:42:07;-0.10;99.90
3275;DHT22;1649;53.672;10.064;2024-01-11T09:44:35;0.00;99.90
3275;DHT22;1649;53.672;10.064;2024-01-11T09:47:01;0.00;99.90
3275;DHT22;1649;53.672;10.064;2024-01-11T09:49:30;0.00;99.90
3275;DHT22;1649;53.672;10.064;2024-01-11T09:51:55;0.00;99.90
3275;DHT22;1649;53.672;10.064;2024-01-11T09:54:23;0.10;99.90
3275;DHT22;1649;53.672;10.064;2024-01-11T09:56:50;0.10;99.90
3275;DHT22;1649;53.672;10.064;2024-01-11T09:59:20;0.10;99.90
3275;DHT22;1649;53.672;10.064;2024-01-11T10:01:49;0.10;99.90
3275;DHT22;1649;53.672;10.064;2024-01-11T10:04:16;0.10;99.90
3275;DHT22;1649;53.672;10.064;2024-01-11T10:06:42;0.20;99.90
3275;DHT22;1649;53.672;10.064;2024-01-11T10:09:07;0.20;99.90
3275;DHT22;1649;53.672;10.064;2024-01-11T10:11:33;0.20;99.90
3275;DHT22;1649;53.672;10.064;2024-01-11T10:14:00;0.20;99.90
3275;DHT22;1649;53.672;10.064;2024-01-11T10:16:27;0.20;99.90
3275;DHT22;1649;53.672;10.064;2024-01-11T10:18:54;0.20;99.90
3275;DHT22;1649;53.672;10.064;2024-01-11T10:21:21;0.30;99.90
3275;DHT22;1649;53.672;10.064;2024-01-11T10:23:47;0.30;99.90
3275;DHT22;1649;53.672;10.064;2024-01-11T10:26:15;0.30;99.90
3275;DHT22;1649;53.672;10.064;2024-01-11T10:28:45;0.30;99.90
3275;DHT22;1649;53.672;10.064;2024-01-11T10:31:11;0.30;99.90
3275;DHT22;1649;53.672;10.064;2024-01-11T10:33:37;0.30;99.90
3275;DHT22;1649;53.672;10.064;2024-01-11T10:36:03;0.40;99.90
3275;DHT22;1649;53.672;10.064;2024-01-11T10:38:30;0.40;99.90
3275;DHT22;1649;53.672;10.064;2024-01-11T10:40:59;0.40;99.90
3275;DHT22;1649;53.672;10.064;2024-01-11T10:43:26;0.40;99.90
3275;DHT22;1649;53.672;10.064;2024-01-11T10:45:52;0.40;99.90
3275;DHT22;1649;53.672;10.064;2024-01-11T10:48:22;0.50;99.90
3275;DHT22;1649;53.672;10.064;2024-01-11T10:50:54;0.50;99.90
3275;DHT22;1649;53.672;10.064;2024-01-11T10:53:45;0.50;99.90
3275;DHT22;1649;53.672;10.064;2024-01-11T10:56:12;0.50;99.90
3275;DHT22;1649;53.672;10.064;2024-01-11T10:58:40;0.50;99.90
3275;DHT22;1649;53.672;10.064;2024-01-11T11:01:06;0.50;99.90
3275;DHT22;1649;53.672;10.064;2024-01-11T11:03:34;0.60;99.90
3275;DHT22;1649;53.672;10.064;2024-01-11T11:06:01;0.60;99.90
3275;DHT22;1649;53.672;10.064;2024-01-11T11:08:27;0.60;99.90
3275;DHT22;1649;53.672;10.064;2024-01-11T11:10:56;0.60;99.90
3275;DHT22;1649;53.672;10.064;2024-01-11T11:13:23;0.60;99.90
3275;DHT22;1649;53.672;10.064;2024-01-11T11:15:49;0.60;99.90
3275;DHT22;1649;53.672;10.064;2024-01-11T11:18:15;0.70;99.90
3275;DHT22;1649;53.672;10.064;2024-01-11T11:20:41;0.70;99.90
3275;DHT22;1649;53.672;10.064;2024-01-11T11:23:08;0.70;99.90
3275;DHT22;1649;53.672;10.064;2024-01-11T11:25:36;0.70;99.90
3275;DHT22;1649;53.672;10.064;2024-01-11T11:28:02;0.80;99.90
3275;DHT22;1649;53.672;10.064;2024-01-11T11:30:30;0.80;99.90
3275;DHT22;1649;53.672;10.064;2024-01-11T11:32:55;0.80;99.90
3275;DHT22;1649;53.672;10.064;2024-01-11T11:35:24;0.80;99.90
3275;DHT22;1649;53.672;10.064;2024-01-11T11:37:55;0.80;99.90
3275;DHT22;1649;53.672;10.064;2024-01-11T11:40:21;0.80;99.90
3275;DHT22;1649;53.672;10.064;2024-01-11T11:42:47;0.60;99.90
3275;DHT22;1649;53.672;10.064;2024-01-11T11:45:25;0.80;99.90
3275;DHT22;1649;53.672;10.064;2024-01-11T11:47:50;0.80;99.90
3275;DHT22;1649;53.672;10.064;2024-01-11T11:50:16;0.80;99.90
3275;DHT22;1649;53.672;10.064;2024-01-11T11:52:44;0.80;99.90
3275;DHT22;1649;53.672;10.064;2024-01-11T11:55:10;0.80;99.90
3275;DHT22;1649;53.672;10.064;2024-01-11T11:57:37;0.80;99.90
3275;DHT22;1649;53.672;10.064;2024-01-11T12:00:03;0.90;99.90
3275;DHT22;1649;53.672;10.064;2024-01-11T12:02:32;0.90;99.90
3275;DHT22;1649;53.672;10.064;2024-01-11T12:05:01;0.90;99.90
3275;DHT22;1649;53.672;10.064;2024-01-11T12:07:27;1.00;99.90
3275;DHT22;1649;53.672;10.064;2024-01-11T12:09:52;1.00;99.90
3275;DHT22;1649;53.672;10.064;2024-01-11T12:12:18;1.00;99.90
3275;DHT22;1649;53.672;10.064;2024-01-11T12:14:46;1.00;99.90
3275;DHT22;1649;53.672;10.064;2024-01-11T12:17:12;1.00;99.90
3275;DHT22;1649;53.672;10.064;2024-01-11T12:19:38;1.00;99.90
3275;DHT22;1649;53.672;10.064;2024-01-11T12:22:03;1.10;99.90
3275;DHT22;1649;53.672;10.064;2024-01-11T12:24:29;1.10;99.90
3275;DHT22;1649;53.672;10.064;2024-01-11T12:26:56;1.20;99.90
3275;DHT22;1649;53.672;10.064;2024-01-11T12:29:25;1.20;99.90
3275;DHT22;1649;53.672;10.064;2024-01-11T12:31:56;1.20;99.90
3275;DHT22;1649;53.672;10.064;2024-01-11T12:34:22;1.30;99.90
3275;DHT22;1649;53.672;10.064;2024-01-11T12:36:49;1.30;99.90
3275;DHT22;1649;53.672;10.064;2024-01-11T12:39:16;1.40;99.90
3275;DHT22;1649;53.672;10.064;2024-01-11T12:41:42;1.40;99.90
3275;DHT22;1649;53.672;10.064;2024-01-11T12:44:08;1.40;99.90
3275;DHT22;1649;53.672;10.064;2024-01-11T12:46:34;1.40;99.90
3275;DHT22;1649;53.672;10.064;2024-01-11T12:48:59;1.50;99.90
3275;DHT22;1649;53.672;10.064;2024-01-11T12:51:26;1.40;99.90
3275;DHT22;1649;53.672;10.064;2024-01-11T12:53:52;1.50;99.90
3275;DHT22;1649;53.672;10.064;2024-01-11T12:56:19;1.50;99.90
3275;DHT22;1649;53.672;10.064;2024-01-11T12:58:46;1.50;99.90
3275;DHT22;1649;53.672;10.064;2024-01-11T13:01:12;1.50;99.90
3275;DHT22;1649;53.672;10.064;2024-01-11T13:03:40;1.50;99.90
3275;DHT22;1649;53.672;10.064;2024-01-11T13:06:08;1.60;99.90
3275;DHT22;1649;53.672;10.064;2024-01-11T13:08:37;1.60;99.90
3275;DHT22;1649;53.672;10.064;2024-01-11T13:11:05;1.60;99.90
3275;DHT22;1649;53.672;10.064;2024-01-11T13:13:34;1.60;99.90
3275;DHT22;1649;53.672;10.064;2024-01-11T13:16:00;1.60;99.90
3275;DHT22;1649;53.672;10.064;2024-01-11T13:18:25;1.70;99.90
3275;DHT22;1649;53.672;10.064;2024-01-11T13:20:51;1.60;99.90
3275;DHT22;1649;53.672;10.064;2024-01-11T13:23:18;1.60;99.90
3275;DHT22;1649;53.672;10.064;2024-01-11T13:25:49;1.50;99.90
3275;DHT22;1649;53.672;10.064;2024-01-11T13:28:17;1.60;99.90
3275;DHT22;1649;53.672;10.064;2024-01-11T13:30:44;1.60;99.90
3275;DHT22;1649;53.672;10.064;2024-01-11T13:33:11;1.60;99.90
3275;DHT22;1649;53.672;10.064;2024-01-11T13:35:38;1.60;99.90
3275;DHT22;1649;53.672;10.064;2024-01-11T13:38:05;1.60;99.90
3275;DHT22;1649;53.672;10.064;2024-01-11T13:40:31;1.60;99.90
3275;DHT22;1649;53.672;10.064;2024-01-11T13:42:57;1.60;99.90
3275;DHT22;1649;53.672;10.064;2024-01-11T13:45:23;1.60;99.90
3275;DHT22;1649;53.672;10.064;2024-01-11T13:47:50;1.70;99.90
3275;DHT22;1649;53.672;10.064;2024-01-11T13:50:15;1.70;99.90
3275;DHT22;1649;53.672;10.064;2024-01-11T13:52:41;1.60;99.90
3275;DHT22;1649;53.672;10.064;2024-01-11T13:55:07;1.60;99.90
3275;DHT22;1649;53.672;10.064;2024-01-11T13:57:36;1.60;99.90
3275;DHT22;1649;53.672;10.064;2024-01-11T14:00:02;1.60;99.90
3275;DHT22;1649;53.672;10.064;2024-01-11T14:02:28;1.60;99.90
3275;DHT22;1649;53.672;10.064;2024-01-11T14:04:53;1.70;99.90
3275;DHT22;1649;53.672;10.064;2024-01-11T14:07:19;1.70;99.90
3275;DHT22;1649;53.672;10.064;2024-01-11T14:09:44;1.70;99.90
3275;DHT22;1649;53.672;10.064;2024-01-11T14:12:11;1.70;99.90
3275;DHT22;1649;53.672;10.064;2024-01-11T14:14:36;1.70;99.90
3275;DHT22;1649;53.672;10.064;2024-01-11T14:17:02;1.60;99.90
3275;DHT22;1649;53.672;10.064;2024-01-11T14:19:27;1.60;99.90
3275;DHT22;1649;53.672;10.064;2024-01-11T14:21:53;1.60;99.90
3275;DHT22;1649;53.672;10.064;2024-01-11T14:24:19;1.60;99.90
3275;DHT22;1649;53.672;10.064;2024-01-11T14:26:44;1.60;99.90
3275;DHT22;1649;53.672;10.064;2024-01-11T14:29:10;1.60;99.90
3275;DHT22;1649;53.672;10.064;2024-01-11T14:31:36;1.60;99.90
3275;DHT22;1649;53.672;10.064;2024-01-11T14:34:02;1.50;99.90
3275;DHT22;1649;53.672;10.064;2024-01-11T14:36:28;1.50;99.90
3275;DHT22;1649;53.672;10.064;2024-01-11T14:38:54;1.50;99.90
3275;DHT22;1649;53.672;10.064;2024-01-11T14:41:19;1.50;99.90
3275;DHT22;1649;53.672;10.064;2024-01-11T14:43:45;1.40;99.90
3275;DHT22;1649;53.672;10.064;2024-01-11T14:46:11;1.40;99.90
3275;DHT22;1649;53.672;10.064;2024-01-11T14:48:37;1.40;99.90
3275;DHT22;1649;53.672;10.064;2024-01-11T14:51:02;1.40;99.90
3275;DHT22;1649;53.672;10.064;2024-01-11T14:53:29;1.40;99.90
3275;DHT22;1649;53.672;10.064;2024-01-11T14:55:55;1.40;99.90
3275;DHT22;1649;53.672;10.064;2024-01-11T14:58:21;1.40;99.90
3275;DHT22;1649;53.672;10.064;2024-01-11T15:00:47;1.40;99.90
3275;DHT22;1649;53.672;10.064;2024-01-11T15:03:12;1.30;99.90
3275;DHT22;1649;53.672;10.064;2024-01-11T15:05:38;1.40;99.90
3275;DHT22;1649;53.672;10.064;2024-01-11T15:08:03;1.40;99.90
3275;DHT22;1649;53.672;10.064;2024-01-11T15:10:30;1.40;99.90
3275;DHT22;1649;53.672;10.064;2024-01-11T15:12:55;1.40;99.90
3275;DHT22;1649;53.672;10.064;2024-01-11T15:15:21;1.30;99.90
3275;DHT22;1649;53.672;10.064;2024-01-11T15:17:47;1.30;99.90
3275;DHT22;1649;53.672;10.064;2024-01-11T15:20:13;1.30;99.90
3275;DHT22;1649;53.672;10.064;2024-01-11T15:22:38;1.20;99.90
3275;DHT22;1649;53.672;10.064;2024-01-11T15:25:04;1.20;99.90
3275;DHT22;1649;53.672;10.064;2024-01-11T15:27:30;1.20;99.90
3275;DHT22;1649;53.672;10.064;2024-01-11T15:29:56;1.20;99.90
3275;DHT22;1649;53.672;10.064;2024-01-11T15:32:22;1.20;99.90
3275;DHT22;1649;53.672;10.064;2024-01-11T15:34:47;1.10;99.90
3275;DHT22;1649;53.672;10.064;2024-01-11T15:37:13;1.10;99.90
3275;DHT22;1649;53.672;10.064;2024-01-11T15:39:39;1.10;99.90
3275;DHT22;1649;53.672;10.064;2024-01-11T15:42:04;1.10;99.90
3275;DHT22;1649;53.672;10.064;2024-01-11T15:44:30;1.00;99.90